Time;durP1;ratioP1;P1;durP2;ratioP2;P2;SDS_P1;SDS_P2;PMS_P1;PMS_P2;Temp;Humidity;BMP_temperature;BMP_pressure;BME280_temperature;BME280_humidity;BME280_pressure;Samples;Min_cycle;Max_cycle;Signal;HPM_P1;HPM_P2
2024/01/14 00:01:25;;;;;;;0.10;0.10;;;;;;;;;;5038397;28;20090;-89
2024/01/14 00:03:51;;;;;;;0.10;0.10;;;;;;;;;;5071690;28;20095;-88
2024/01/14 00:06:17;;;;;;;0.10;0.10;;;;;;;;;;5055208;28;20033;-89
2024/01/14 00:08:43;;;;;;;0.10;0.10;;;;;;;;;;5054994;28;20395;-88
2024/01/14 00:11:09;;;;;;;0.10;0.10;;;;;;;;;;5055000;28;20121;-89
2024/01/14 00:13:35;;;;;;;0.10;0.10;;;;;;;;;;5055106;28;20407;-89
2024/01/14 00:16:01;;;;;;;0.10;0.10;;;;;;;;;;5054831;28;20036;-89
2024/01/14 00:18:27;;;;;;;0.10;0.10;;;;;;;;;;5038383;28;20032;-88
2024/01/14 00:20:54;;;;;;;0.10;0.10;;;;;;;;;;5038282;28;20117;-89
2024/01/14 00:23:20;;;;;;;0.10;0.10;;;;;;;;;;5071356;28;20446;-89
2024/01/14 00:25:46;;;;;;;0.10;0.10;;;;;;;;;;5054851;28;20036;-89
2024/01/14 00:28:12;;;;;;;0.10;0.10;;;;;;;;;;5054557;28;20044;-89
2024/01/14 00:30:38;;;;;;;0.10;0.10;;;;;;;;;;5038030;28;20044;-89
2024/01/14 00:33:04;;;;;;;0.10;0.10;;;;;;;;;;5038628;28;20087;-89
2024/01/14 00:35:30;;;;;;;0.10;0.10;;;;;;;;;;5038093;28;20098;-89
2024/01/14 00:37:56;;;;;;;0.10;0.10;;;;;;;;;;5038499;28;20040;-89
2024/01/14 00:40:22;;;;;;;0.10;0.10;;;;;;;;;;5070856;28;20036;-90
2024/01/14 00:42:48;;;;;;;0.10;0.10;;;;;;;;;;5071545;28;20093;-89
2024/01/14 00:45:14;;;;;;;0.10;0.10;;;;;;;;;;5054722;28;20116;-89
2024/01/14 00:47:40;;;;;;;0.30;0.30;;;;;;;;;;5054425;28;20110;-89
2024/01/14 00:50:06;;;;;;;0.10;0.10;;;;;;;;;;5054694;28;20451;-90
2024/01/14 00:52:33;;;;;;;0.28;0.28;;;;;;;;;;5054257;28;20045;-88
2024/01/14 00:54:59;;;;;;;0.10;0.10;;;;;;;;;;5054722;28;20062;-89
2024/01/14 00:57:25;;;;;;;0.10;0.10;;;;;;;;;;5038624;28;20093;-88
2024/01/14 00:59:51;;;;;;;0.10;0.10;;;;;;;;;;5074610;28;20502;-86
2024/01/14 01:02:18;;;;;;;0.10;0.10;;;;;;;;;;5058088;28;20048;-89
2024/01/14 01:04:44;;;;;;;0.10;0.10;;;;;;;;;;5058419;28;20044;-87
2024/01/14 01:07:10;;;;;;;0.10;0.10;;;;;;;;;;5058380;28;20044;-88
2024/01/14 01:09:36;;;;;;;0.10;0.10;;;;;;;;;;5058163;28;20556;-89
2024/01/14 01:12:02;;;;;;;0.10;0.10;;;;;;;;;;5041630;28;20093;-90
2024/01/14 01:14:28;;;;;;;0.10;0.10;;;;;;;;;;5041723;28;20048;-89
2024/01/14 01:16:54;;;;;;;0.10;0.10;;;;;;;;;;5058204;28;20389;-90
2024/01/14 01:19:20;;;;;;;0.10;0.10;;;;;;;;;;5058108;28;20045;-89
2024/01/14 01:21:47;;;;;;;0.10;0.10;;;;;;;;;;5058077;28;20059;-89
2024/01/14 01:24:14;;;;;;;0.52;0.40;;;;;;;;;;5041810;28;20079;-90
2024/01/14 01:26:40;;;;;;;0.10;0.10;;;;;;;;;;5041952;28;20059;-89
2024/01/14 01:29:06;;;;;;;0.10;0.10;;;;;;;;;;5041607;28;20044;-89
2024/01/14 01:31:32;;;;;;;0.10;0.10;;;;;;;;;;5058093;28;20067;-89
2024/01/14 01:33:59;;;;;;;0.10;0.10;;;;;;;;;;5041664;28;20052;-90
2024/01/14 01:36:25;;;;;;;0.10;0.10;;;;;;;;;;5074223;28;20495;-88
2024/01/14 01:38:51;;;;;;;0.10;0.10;;;;;;;;;;5057474;28;20200;-88
2024/01/14 01:41:17;;;;;;;0.10;0.10;;;;;;;;;;5057216;28;20543;-88
2024/01/14 01:43:43;;;;;;;0.25;0.25;;;;;;;;;;5057664;28;20039;-89
2024/01/14 01:46:09;;;;;;;0.10;0.10;;;;;;;;;;5040957;28;20490;-89
2024/01/14 01:48:36;;;;;;;0.10;0.10;;;;;;;;;;5057219;28;20049;-89
2024/01/14 01:51:02;;;;;;;0.10;0.10;;;;;;;;;;5057433;28;20072;-89
2024/01/14 01:53:28;;;;;;;0.10;0.10;;;;;;;;;;5057202;28;20448;-89
2024/01/14 01:55:55;;;;;;;0.10;0.10;;;;;;;;;;5057269;28;20097;-88
2024/01/14 01:58:21;;;;;;;0.10;0.10;;;;;;;;;;5057461;28;20082;-87
2024/01/14 02:00:48;;;;;;;0.10;0.10;;;;;;;;;;5040356;28;20041;-87
2024/01/14 02:03:14;;;;;;;0.10;0.10;;;;;;;;;;5040832;28;20050;-88
2024/01/14 02:05:40;;;;;;;0.10;0.10;;;;;;;;;;5057187;28;20115;-87
2024/01/14 02:08:07;;;;;;;0.10;0.10;;;;;;;;;;5057321;28;20451;-87
2024/01/14 02:10:33;;;;;;;0.10;0.10;;;;;;;;;;5039194;28;20492;-87
2024/01/14 02:12:59;;;;;;;0.10;0.10;;;;;;;;;;5040136;28;20041;-87
2024/01/14 02:15:25;;;;;;;0.10;0.10;;;;;;;;;;5056806;28;20523;-88
2024/01/14 02:17:51;;;;;;;0.10;0.10;;;;;;;;;;5056708;28;20082;-87
2024/01/14 02:20:17;;;;;;;0.10;0.10;;;;;;;;;;5056500;28;20080;-87
2024/01/14 02:22:44;;;;;;;0.10;0.10;;;;;;;;;;5056774;28;20503;-88
2024/01/14 02:25:10;;;;;;;0.10;0.10;;;;;;;;;;5056576;28;20080;-88
2024/01/14 02:27:36;;;;;;;0.10;0.10;;;;;;;;;;5056607;28;20043;-88
2024/01/14 02:30:02;;;;;;;0.10;0.10;;;;;;;;;;5056409;28;20203;-88
2024/01/14 02:32:28;;;;;;;0.10;0.10;;;;;;;;;;5056344;28;20040;-88
2024/01/14 02:34:54;;;;;;;0.10;0.10;;;;;;;;;;5056480;28;20068;-88
2024/01/14 02:37:20;;;;;;;0.10;0.10;;;;;;;;;;5039854;28;20041;-86
2024/01/14 02:39:46;;;;;;;0.10;0.10;;;;;;;;;;5055938;28;20040;-87
2024/01/14 02:42:13;;;;;;;0.10;0.10;;;;;;;;;;5056722;28;20040;-88
2024/01/14 02:44:38;;;;;;;0.10;0.10;;;;;;;;;;5039720;28;20036;-89
2024/01/14 02:47:04;;;;;;;0.10;0.10;;;;;;;;;;5072981;28;20086;-87
2024/01/14 02:49:30;;;;;;;0.10;0.10;;;;;;;;;;5056431;28;20055;-89
2024/01/14 02:51:56;;;;;;;0.10;0.10;;;;;;;;;;5039893;28;20132;-87
2024/01/14 02:54:22;;;;;;;0.10;0.10;;;;;;;;;;5039318;28;20040;-87
2024/01/14 02:56:48;;;;;;;0.10;0.10;;;;;;;;;;5039468;28;20072;-88
2024/01/14 02:59:14;;;;;;;0.10;0.10;;;;;;;;;;5039447;28;20091;-88
2024/01/14 03:01:46;;;;;;;0.10;0.10;;;;;;;;;;5055902;28;20071;-88
2024/01/14 03:04:12;;;;;;;0.10;0.10;;;;;;;;;;5056265;28;20116;-88
2024/01/14 03:06:38;;;;;;;0.10;0.10;;;;;;;;;;5055802;28;20033;-88
2024/01/14 03:09:07;;;;;;;0.10;0.10;;;;;;;;;;5039170;28;20498;-88
2024/01/14 03:11:33;;;;;;;0.10;0.10;;;;;;;;;;5055731;28;20041;-87
2024/01/14 03:13:59;;;;;;;0.10;0.10;;;;;;;;;;5055929;28;20078;-87
2024/01/14 03:16:25;;;;;;;0.10;0.10;;;;;;;;;;5072565;28;20446;-87
2024/01/14 03:18:51;;;;;;;0.10;0.10;;;;;;;;;;5055497;28;20045;-87
2024/01/14 03:21:20;;;;;;;0.10;0.10;;;;;;;;;;5071940;28;20036;-87
2024/01/14 03:23:46;;;;;;;0.10;0.10;;;;;;;;;;5039314;28;20056;-88
2024/01/14 03:26:12;;;;;;;0.10;0.10;;;;;;;;;;5055581;28;20060;-88
2024/01/14 03:28:39;;;;;;;1.95;0.90;;;;;;;;;;5038956;28;20048;-88
2024/01/14 03:31:07;;;;;;;0.17;0.17;;;;;;;;;;5055430;28;20063;-88
2024/01/14 03:33:33;;;;;;;0.10;0.10;;;;;;;;;;5038916;28;20208;-87
2024/01/14 03:36:01;;;;;;;0.10;0.10;;;;;;;;;;5055267;28;20119;-88
2024/01/14 03:38:27;;;;;;;0.10;0.10;;;;;;;;;;5038901;28;20430;-88
2024/01/14 03:40:53;;;;;;;0.10;0.10;;;;;;;;;;5071706;28;20041;-87
2024/01/14 03:43:19;;;;;;;0.10;0.10;;;;;;;;;;5038491;28;20040;-87
2024/01/14 03:45:45;;;;;;;0.10;0.10;;;;;;;;;;5071595;28;20047;-87
2024/01/14 03:48:11;;;;;;;0.10;0.10;;;;;;;;;;5055014;28;20044;-88
2024/01/14 03:50:37;;;;;;;0.10;0.10;;;;;;;;;;5054615;28;20491;-88
2024/01/14 03:53:03;;;;;;;0.10;0.10;;;;;;;;;;5038465;28;20040;-88
2024/01/14 03:55:29;;;;;;;0.10;0.10;;;;;;;;;;5054962;28;20076;-86
2024/01/14 03:57:55;;;;;;;0.10;0.10;;;;;;;;;;5038384;28;20495;-87
2024/01/14 04:00:21;;;;;;;0.10;0.10;;;;;;;;;;5054808;28;20047;-87
2024/01/14 04:02:47;;;;;;;0.10;0.10;;;;;;;;;;5054900;28;20037;-87
2024/01/14 04:05:13;;;;;;;0.10;0.10;;;;;;;;;;5071209;28;20396;-87
2024/01/14 04:07:39;;;;;;;0.10;0.10;;;;;;;;;;5071220;28;20040;-88
2024/01/14 04:10:05;;;;;;;0.10;0.10;;;;;;;;;;5054640;28;20040;-88
2024/01/14 04:12:31;;;;;;;0.10;0.10;;;;;;;;;;5038004;28;20123;-87
2024/01/14 04:14:57;;;;;;;0.10;0.10;;;;;;;;;;5038093;28;20106;-88
2024/01/14 04:17:24;;;;;;;0.10;0.10;;;;;;;;;;5054873;28;20431;-88
2024/01/14 04:19:50;;;;;;;0.10;0.10;;;;;;;;;;5054671;28;20036;-89
2024/01/14 04:22:17;;;;;;;0.10;0.10;;;;;;;;;;5038013;28;20257;-88
2024/01/14 04:24:44;;;;;;;0.10;0.10;;;;;;;;;;5054602;28;20063;-88
2024/01/14 04:27:10;;;;;;;0.10;0.10;;;;;;;;;;5037972;28;20040;-89
2024/01/14 04:29:36;;;;;;;0.10;0.10;;;;;;;;;;5054489;28;20055;-87
2024/01/14 04:32:02;;;;;;;0.10;0.10;;;;;;;;;;5053765;28;20045;-88
2024/01/14 04:34:29;;;;;;;0.10;0.10;;;;;;;;;;5037872;28;20040;-87
2024/01/14 04:36:55;;;;;;;0.10;0.10;;;;;;;;;;5070893;28;20094;-88
2024/01/14 04:39:21;;;;;;;0.30;0.30;;;;;;;;;;5054219;28;20047;-88
2024/01/14 04:41:47;;;;;;;0.10;0.10;;;;;;;;;;5054210;28;20047;-88
2024/01/14 04:44:13;;;;;;;0.10;0.10;;;;;;;;;;5071354;28;20046;-90
2024/01/14 04:46:42;;;;;;;0.10;0.10;;;;;;;;;;5055089;28;20045;-90
2024/01/14 04:49:08;;;;;;;0.10;0.10;;;;;;;;;;5071022;28;20513;-89
2024/01/14 04:51:35;;;;;;;0.10;0.10;;;;;;;;;;5054597;28;20041;-89
2024/01/14 04:54:02;;;;;;;0.10;0.10;;;;;;;;;;5054607;28;20037;-90
2024/01/14 04:56:28;;;;;;;0.10;0.10;;;;;;;;;;5038210;28;20062;-89
2024/01/14 04:58:54;;;;;;;0.10;0.10;;;;;;;;;;5038442;28;20040;-89
2024/01/14 05:01:20;;;;;;;0.10;0.10;;;;;;;;;;5054583;28;20037;-90
2024/01/14 05:03:46;;;;;;;0.10;0.10;;;;;;;;;;5054484;28;20047;-90
2024/01/14 05:06:12;;;;;;;0.10;0.10;;;;;;;;;;5054479;28;20036;-89
2024/01/14 05:08:41;;;;;;;0.10;0.10;;;;;;;;;;5054630;28;20036;-89
2024/01/14 05:11:07;;;;;;;0.10;0.10;;;;;;;;;;5038147;28;20492;-89
2024/01/14 05:13:33;;;;;;;0.10;0.10;;;;;;;;;;5070783;28;20086;-89
2024/01/14 05:15:59;;;;;;;0.10;0.10;;;;;;;;;;5037638;28;20128;-89
2024/01/14 05:18:26;;;;;;;0.10;0.10;;;;;;;;;;5054323;28;20472;-89
2024/01/14 05:20:52;;;;;;;0.10;0.10;;;;;;;;;;5070897;28;20571;-88
2024/01/14 05:23:19;;;;;;;0.10;0.10;;;;;;;;;;5071060;28;20408;-89
2024/01/14 05:25:45;;;;;;;0.10;0.10;;;;;;;;;;5037744;28;20047;-88
2024/01/14 05:28:11;;;;;;;0.10;0.10;;;;;;;;;;5054366;28;20479;-89
2024/01/14 05:30:37;;;;;;;0.10;0.10;;;;;;;;;;5037323;28;20056;-88
2024/01/14 05:33:03;;;;;;;0.10;0.10;;;;;;;;;;5054125;28;20037;-89
2024/01/14 05:35:30;;;;;;;0.10;0.10;;;;;;;;;;5037690;28;20044;-88
2024/01/14 05:37:56;;;;;;;0.10;0.10;;;;;;;;;;5054417;28;20395;-89
2024/01/14 05:40:23;;;;;;;0.10;0.10;;;;;;;;;;5053693;28;20040;-88
2024/01/14 05:42:49;;;;;;;0.10;0.10;;;;;;;;;;5037233;28;20041;-89
2024/01/14 05:45:15;;;;;;;0.10;0.10;;;;;;;;;;5056183;28;20040;-89
2024/01/14 05:47:42;;;;;;;0.10;0.10;;;;;;;;;;5057408;28;20106;-89
2024/01/14 05:50:08;;;;;;;0.10;0.10;;;;;;;;;;5057744;28;20055;-89
2024/01/14 05:52:34;;;;;;;0.10;0.10;;;;;;;;;;5057487;28;20082;-88
2024/01/14 05:55:00;;;;;;;0.10;0.10;;;;;;;;;;5074047;28;20124;-89
2024/01/14 05:57:27;;;;;;;0.10;0.10;;;;;;;;;;5040975;28;20205;-89
2024/01/14 05:59:53;;;;;;;0.10;0.10;;;;;;;;;;5057395;28;20045;-89
2024/01/14 06:02:19;;;;;;;0.10;0.10;;;;;;;;;;5073991;28;20059;-88
2024/01/14 06:04:45;;;;;;;0.10;0.10;;;;;;;;;;5057516;28;20041;-89
2024/01/14 06:07:11;;;;;;;0.10;0.10;;;;;;;;;;5057200;28;20033;-89
2024/01/14 06:09:37;;;;;;;0.10;0.10;;;;;;;;;;5057465;28;20134;-89
2024/01/14 06:12:03;;;;;;;0.10;0.10;;;;;;;;;;5057458;28;20043;-89
2024/01/14 06:14:29;;;;;;;0.10;0.10;;;;;;;;;;5074095;28;20369;-89
2024/01/14 06:16:55;;;;;;;0.10;0.10;;;;;;;;;;5057691;28;20438;-89
2024/01/14 06:19:21;;;;;;;0.10;0.10;;;;;;;;;;5056923;28;20036;-88
2024/01/14 06:21:47;;;;;;;0.10;0.10;;;;;;;;;;5056682;28;20089;-89
2024/01/14 06:24:14;;;;;;;0.10;0.10;;;;;;;;;;5073657;28;20094;-88
2024/01/14 06:26:40;;;;;;;0.10;0.10;;;;;;;;;;5040646;28;20076;-89
2024/01/14 06:29:06;;;;;;;0.10;0.10;;;;;;;;;;5056627;28;20497;-89
2024/01/14 06:31:32;;;;;;;0.10;0.10;;;;;;;;;;5056583;28;20052;-88
2024/01/14 06:33:59;;;;;;;0.10;0.10;;;;;;;;;;5073362;28;20056;-89
2024/01/14 06:36:25;;;;;;;0.10;0.10;;;;;;;;;;5073491;28;20510;-89
2024/01/14 06:38:51;;;;;;;0.10;0.10;;;;;;;;;;5073314;28;20036;-88
2024/01/14 06:41:18;;;;;;;0.10;0.10;;;;;;;;;;5039800;28;20036;-89
2024/01/14 06:43:44;;;;;;;0.10;0.10;;;;;;;;;;5056813;28;20097;-88
2024/01/14 06:46:10;;;;;;;0.10;0.10;;;;;;;;;;5056657;28;20039;-88
2024/01/14 06:48:36;;;;;;;0.10;0.10;;;;;;;;;;5072798;28;20106;-88
2024/01/14 06:51:02;;;;;;;0.10;0.10;;;;;;;;;;5072862;28;20484;-89
2024/01/14 06:53:28;;;;;;;0.10;0.10;;;;;;;;;;5039844;28;20079;-89
2024/01/14 06:55:54;;;;;;;0.10;0.10;;;;;;;;;;5039190;28;20403;-88
2024/01/14 06:58:20;;;;;;;0.10;0.10;;;;;;;;;;5056179;28;20132;-89
2024/01/14 07:00:46;;;;;;;0.10;0.10;;;;;;;;;;5055974;28;20128;-88
2024/01/14 07:03:12;;;;;;;0.10;0.10;;;;;;;;;;5072771;28;20555;-88
2024/01/14 07:05:38;;;;;;;0.10;0.10;;;;;;;;;;5055961;28;20036;-89
2024/01/14 07:08:05;;;;;;;0.10;0.10;;;;;;;;;;5056053;28;20082;-89
2024/01/14 07:10:31;;;;;;;0.10;0.10;;;;;;;;;;5056311;28;20048;-89
2024/01/14 07:12:57;;;;;;;0.10;0.10;;;;;;;;;;5055800;28;20048;-88
2024/01/14 07:15:23;;;;;;;0.10;0.10;;;;;;;;;;5055811;28;20492;-88
2024/01/14 07:17:50;;;;;;;0.10;0.10;;;;;;;;;;5055749;28;20036;-88
2024/01/14 07:20:16;;;;;;;0.10;0.10;;;;;;;;;;5055714;28;20049;-89
2024/01/14 07:22:42;;;;;;;0.20;0.20;;;;;;;;;;5039355;28;20383;-88
2024/01/14 07:25:10;;;;;;;0.10;0.10;;;;;;;;;;5055643;28;20488;-88
2024/01/14 07:27:36;;;;;;;0.10;0.10;;;;;;;;;;5039803;28;20043;-87
2024/01/14 07:30:02;;;;;;;0.10;0.10;;;;;;;;;;5056392;28;20048;-90
2024/01/14 07:32:28;;;;;;;0.10;0.10;;;;;;;;;;5039406;28;20098;-92
2024/01/14 07:34:54;;;;;;;0.10;0.10;;;;;;;;;;5041062;28;20040;-89
2024/01/14 07:37:20;;;;;;;0.10;0.10;;;;;;;;;;5056062;28;20044;-89
2024/01/14 07:39:46;;;;;;;0.10;0.10;;;;;;;;;;5072270;28;20484;-89
2024/01/14 07:42:12;;;;;;;0.10;0.10;;;;;;;;;;5055918;28;20044;-89
2024/01/14 07:44:38;;;;;;;0.10;0.10;;;;;;;;;;5039521;28;20396;-89
2024/01/14 07:47:04;;;;;;;0.10;0.10;;;;;;;;;;5055796;28;20047;-90
2024/01/14 07:49:30;;;;;;;0.10;0.10;;;;;;;;;;5039660;28;20462;-89
2024/01/14 07:51:57;;;;;;;0.10;0.10;;;;;;;;;;5055928;28;20094;-90
2024/01/14 07:54:23;;;;;;;0.10;0.10;;;;;;;;;;5038924;28;20093;-89
2024/01/14 07:56:49;;;;;;;0.10;0.10;;;;;;;;;;5056345;28;20404;-90
2024/01/14 07:59:15;;;;;;;0.10;0.10;;;;;;;;;;5056593;28;20070;-90
2024/01/14 08:01:41;;;;;;;0.10;0.10;;;;;;;;;;5073009;28;20044;-91
2024/01/14 08:04:07;;;;;;;0.10;0.10;;;;;;;;;;5056057;28;20047;-89
2024/01/14 08:06:33;;;;;;;0.10;0.10;;;;;;;;;;5039201;28;20036;-89
2024/01/14 08:08:59;;;;;;;0.10;0.10;;;;;;;;;;5040098;28;20076;-89
2024/01/14 08:11:25;;;;;;;0.10;0.10;;;;;;;;;;5057066;28;20218;-88
2024/01/14 08:13:51;;;;;;;0.10;0.10;;;;;;;;;;5074177;28;20036;-89
2024/01/14 08:16:17;;;;;;;0.10;0.10;;;;;;;;;;5058015;28;20457;-88
2024/01/14 08:18:43;;;;;;;0.10;0.10;;;;;;;;;;5060264;28;20032;-88
2024/01/14 08:21:10;;;;;;;0.10;0.10;;;;;;;;;;5072470;28;20040;-88
2024/01/14 08:23:39;;;;;;;0.10;0.10;;;;;;;;;;5074062;28;20046;-90
2024/01/14 08:26:06;;;;;;;0.10;0.10;;;;;;;;;;5073069;28;20062;-89
2024/01/14 08:28:32;;;;;;;0.10;0.10;;;;;;;;;;5058312;28;20041;-88
2024/01/14 08:30:58;;;;;;;0.10;0.10;;;;;;;;;;5047002;28;20048;-89
2024/01/14 08:33:24;;;;;;;0.10;0.10;;;;;;;;;;5072257;28;20510;-89
2024/01/14 08:35:50;;;;;;;0.10;0.10;;;;;;;;;;5039054;28;20040;-90
2024/01/14 08:38:16;;;;;;;0.10;0.10;;;;;;;;;;5055559;28;20040;-91
2024/01/14 08:40:42;;;;;;;0.10;0.10;;;;;;;;;;5038347;28;20040;-90
2024/01/14 08:43:08;;;;;;;0.10;0.10;;;;;;;;;;5055546;28;20040;-90
2024/01/14 08:45:34;;;;;;;0.32;0.32;;;;;;;;;;5038874;28;20068;-91
2024/01/14 08:48:00;;;;;;;0.10;0.10;;;;;;;;;;5055106;28;20059;-91
2024/01/14 08:50:26;;;;;;;0.10;0.10;;;;;;;;;;5038555;28;20044;-90
2024/01/14 08:52:52;;;;;;;0.10;0.10;;;;;;;;;;5055397;28;20041;-89
2024/01/14 08:55:18;;;;;;;0.10;0.10;;;;;;;;;;5055069;28;20121;-89
2024/01/14 08:57:44;;;;;;;0.10;0.10;;;;;;;;;;5038431;28;20043;-89
2024/01/14 09:00:10;;;;;;;0.10;0.10;;;;;;;;;;5038421;28;20044;-91
2024/01/14 09:02:36;;;;;;;0.10;0.10;;;;;;;;;;5038103;28;20033;-91
2024/01/14 09:05:05;;;;;;;0.10;0.10;;;;;;;;;;5038567;28;20036;-92
2024/01/14 09:07:31;;;;;;;0.20;0.20;;;;;;;;;;5071525;28;20041;-91
2024/01/14 09:09:57;;;;;;;0.10;0.10;;;;;;;;;;5054725;28;20040;-92
2024/01/14 09:12:23;;;;;;;0.10;0.10;;;;;;;;;;5054734;28;20067;-91
2024/01/14 09:14:51;;;;;;;0.10;0.10;;;;;;;;;;5054922;28;20102;-93
2024/01/14 09:17:17;;;;;;;0.10;0.10;;;;;;;;;;5056047;28;20044;-93
2024/01/14 09:19:44;;;;;;;0.10;0.10;;;;;;;;;;5042334;28;20086;-93
2024/01/14 09:22:10;;;;;;;0.22;0.22;;;;;;;;;;5042318;28;20040;-90
2024/01/14 09:24:37;;;;;;;0.10;0.10;;;;;;;;;;5058459;28;20058;-91
2024/01/14 09:27:03;;;;;;;0.10;0.10;;;;;;;;;;5041416;28;20040;-89
2024/01/14 09:29:30;;;;;;;0.10;0.10;;;;;;;;;;5057543;28;20051;-88
2024/01/14 09:31:56;;;;;;;0.10;0.10;;;;;;;;;;5074229;28;20041;-88
2024/01/14 09:34:22;;;;;;;0.10;0.10;;;;;;;;;;5057653;28;20044;-89
2024/01/14 09:36:48;;;;;;;0.10;0.10;;;;;;;;;;5074181;28;20052;-89
2024/01/14 09:39:14;;;;;;;0.20;0.20;;;;;;;;;;5057401;28;20568;-88
2024/01/14 09:42:00;;;;;;;0.10;0.10;;;;;;;;;;5057643;28;20055;-88
2024/01/14 09:44:26;;;;;;;0.10;0.10;;;;;;;;;;5074073;28;20086;-90
2024/01/14 09:46:52;;;;;;;0.10;0.10;;;;;;;;;;5057321;28;20158;-89
2024/01/14 09:49:18;;;;;;;0.10;0.10;;;;;;;;;;5057325;28;20439;-89
2024/01/14 09:51:44;;;;;;;0.10;0.10;;;;;;;;;;5057238;28;20047;-87
2024/01/14 09:54:10;;;;;;;0.10;0.10;;;;;;;;;;5057529;28;20044;-87
2024/01/14 09:56:36;;;;;;;0.10;0.10;;;;;;;;;;5073921;28;20080;-88
2024/01/14 09:59:03;;;;;;;0.10;0.10;;;;;;;;;;5073874;28;20075;-88
2024/01/14 10:01:33;;;;;;;0.10;0.10;;;;;;;;;;5057712;28;20377;-87
2024/01/14 10:04:00;;;;;;;0.10;0.10;;;;;;;;;;5057863;28;20040;-89
2024/01/14 10:06:26;;;;;;;0.10;0.10;;;;;;;;;;5073963;28;20033;-88
2024/01/14 10:08:52;;;;;;;0.10;0.10;;;;;;;;;;5057039;28;20045;-89
2024/01/14 10:11:18;;;;;;;0.10;0.10;;;;;;;;;;5056998;28;20090;-88
2024/01/14 10:13:44;;;;;;;0.10;0.10;;;;;;;;;;5056835;28;20090;-88
2024/01/14 10:16:13;;;;;;;0.10;0.10;;;;;;;;;;5056964;28;20439;-87
2024/01/14 10:18:39;;;;;;;0.10;0.10;;;;;;;;;;5056904;28;20044;-87
2024/01/14 10:21:05;;;;;;;0.10;0.10;;;;;;;;;;5057776;28;20048;-93
2024/01/14 10:23:32;;;;;;;0.10;0.10;;;;;;;;;;5058195;28;20032;-91
2024/01/14 10:26:01;;;;;;;0.10;0.10;;;;;;;;;;5057476;28;20145;-89
2024/01/14 10:28:31;;;;;;;0.10;0.10;;;;;;;;;;5073290;28;20054;-88
2024/01/14 10:31:01;;;;;;;0.10;0.10;;;;;;;;;;5056859;28;20321;-88
2024/01/14 10:33:30;;;;;;;0.10;0.10;;;;;;;;;;5056583;28;20040;-88
2024/01/14 10:35:56;;;;;;;0.10;0.10;;;;;;;;;;5056727;28;20048;-87
2024/01/14 10:38:22;;;;;;;0.10;0.10;;;;;;;;;;5072970;28;20036;-88
2024/01/14 10:40:48;;;;;;;0.10;0.10;;;;;;;;;;5056876;28;20101;-87
2024/01/14 10:43:14;;;;;;;0.10;0.10;;;;;;;;;;5056397;28;20045;-85
2024/01/14 10:45:40;;;;;;;0.10;0.10;;;;;;;;;;5056340;28;20044;-87
2024/01/14 10:48:09;;;;;;;0.10;0.10;;;;;;;;;;5055894;28;20507;-87
2024/01/14 10:50:36;;;;;;;0.10;0.10;;;;;;;;;;5072795;28;20538;-85
2024/01/14 10:53:02;;;;;;;0.10;0.10;;;;;;;;;;5072810;28;20045;-88
2024/01/14 10:55:31;;;;;;;0.10;0.10;;;;;;;;;;5056429;28;20402;-88
2024/01/14 10:57:57;;;;;;;0.10;0.10;;;;;;;;;;5056205;28;20063;-89
2024/01/14 11:00:23;;;;;;;0.35;0.35;;;;;;;;;;5055843;28;20054;-86
2024/01/14 11:02:49;;;;;;;0.10;0.10;;;;;;;;;;5072755;28;20035;-86
2024/01/14 11:05:15;;;;;;;0.10;0.10;;;;;;;;;;5055864;28;20392;-87
2024/01/14 11:07:41;;;;;;;0.10;0.10;;;;;;;;;;5056121;28;20047;-88
2024/01/14 11:10:07;;;;;;;0.10;0.10;;;;;;;;;;5055901;28;20040;-89
2024/01/14 11:12:52;;;;;;;0.10;0.10;;;;;;;;;;5056240;28;20045;-89
2024/01/14 11:15:33;;;;;;;0.10;0.10;;;;;;;;;;5073022;28;20048;-89
2024/01/14 11:18:02;;;;;;;0.10;0.10;;;;;;;;;;5055948;28;20040;-87
2024/01/14 11:20:32;;;;;;;0.10;0.10;;;;;;;;;;5072057;28;20499;-88
2024/01/14 11:22:58;;;;;;;0.10;0.10;;;;;;;;;;5071495;28;20395;-88
2024/01/14 11:25:24;;;;;;;0.10;0.10;;;;;;;;;;5072491;28;20033;-90
2024/01/14 11:27:53;;;;;;;0.10;0.10;;;;;;;;;;5057397;28;20032;-89
2024/01/14 11:30:19;;;;;;;0.10;0.10;;;;;;;;;;5056585;28;20392;-90
2024/01/14 11:32:45;;;;;;;0.10;0.10;;;;;;;;;;5056701;28;20048;-89
2024/01/14 11:35:32;;;;;;;0.10;0.10;;;;;;;;;;5072650;28;20040;-89
2024/01/14 11:37:58;;;;;;;0.10;0.10;;;;;;;;;;5058746;28;20055;-93
2024/01/14 11:40:28;;;;;;;0.10;0.10;;;;;;;;;;5057065;28;20363;-89
2024/01/14 11:42:56;;;;;;;0.10;0.10;;;;;;;;;;5055262;28;20399;-89
2024/01/14 11:45:25;;;;;;;0.10;0.10;;;;;;;;;;5056162;28;20037;-89
2024/01/14 11:47:51;;;;;;;0.10;0.10;;;;;;;;;;5071886;28;20054;-90
2024/01/14 11:50:18;;;;;;;0.10;0.10;;;;;;;;;;5055945;28;20055;-89
2024/01/14 11:52:45;;;;;;;0.10;0.10;;;;;;;;;;5055809;28;20040;-89
2024/01/14 11:55:14;;;;;;;0.10;0.10;;;;;;;;;;5055312;28;20040;-88
2024/01/14 11:57:40;;;;;;;0.10;0.10;;;;;;;;;;5056599;28;20046;-88
2024/01/14 12:00:07;;;;;;;0.10;0.10;;;;;;;;;;5055219;28;20040;-88
2024/01/14 12:02:33;;;;;;;0.10;0.10;;;;;;;;;;5055492;28;20136;-88
2024/01/14 12:05:14;;;;;;;0.10;0.10;;;;;;;;;;5055256;28;20036;-89
2024/01/14 12:07:41;;;;;;;0.10;0.10;;;;;;;;;;5055129;28;20041;-89
2024/01/14 12:10:07;;;;;;;0.10;0.10;;;;;;;;;;5055438;28;20098;-88
2024/01/14 12:12:36;;;;;;;0.10;0.10;;;;;;;;;;5054466;28;20051;-86
2024/01/14 12:15:03;;;;;;;0.10;0.10;;;;;;;;;;5054726;28;20036;-85
2024/01/14 12:17:29;;;;;;;0.10;0.10;;;;;;;;;;5054854;28;20044;-84
2024/01/14 12:19:58;;;;;;;0.10;0.10;;;;;;;;;;5070867;28;20044;-86
2024/01/14 12:22:26;;;;;;;0.10;0.10;;;;;;;;;;5054763;28;20040;-87
2024/01/14 12:24:52;;;;;;;0.10;0.10;;;;;;;;;;5054689;28;20434;-86
2024/01/14 12:27:18;;;;;;;0.10;0.10;;;;;;;;;;5071000;28;20045;-86
2024/01/14 12:29:44;;;;;;;0.10;0.10;;;;;;;;;;5070823;28;20040;-85
2024/01/14 12:32:10;;;;;;;0.10;0.10;;;;;;;;;;5054296;28;20411;-87
2024/01/14 12:34:39;;;;;;;0.10;0.10;;;;;;;;;;5054660;28;20045;-88
2024/01/14 12:37:06;;;;;;;0.10;0.10;;;;;;;;;;5054876;28;20123;-87
2024/01/14 12:39:32;;;;;;;0.10;0.10;;;;;;;;;;5054381;28;20177;-89
2024/01/14 12:41:58;;;;;;;0.10;0.10;;;;;;;;;;5054786;28;20098;-92
2024/01/14 12:44:28;;;;;;;0.10;0.10;;;;;;;;;;5072252;28;20123;-91
2024/01/14 12:47:07;;;;;;;0.10;0.10;;;;;;;;;;5073032;28;20036;-92
2024/01/14 12:49:33;;;;;;;0.10;0.10;;;;;;;;;;5055929;28;20066;-92
2024/01/14 12:52:00;;;;;;;0.10;0.10;;;;;;;;;;5056214;28;20044;-93
2024/01/14 12:54:26;;;;;;;0.10;0.10;;;;;;;;;;5072237;28;20044;-93
2024/01/14 12:57:01;;;;;;;0.10;0.10;;;;;;;;;;5056199;28;20131;-90
2024/01/14 12:59:27;;;;;;;0.10;0.10;;;;;;;;;;5073048;28;20040;-91
2024/01/14 13:01:53;;;;;;;0.10;0.10;;;;;;;;;;5056176;28;20033;-93
2024/01/14 13:04:19;;;;;;;0.10;0.10;;;;;;;;;;5056417;28;20047;-89
2024/01/14 13:06:46;;;;;;;0.10;0.10;;;;;;;;;;5073068;28;20123;-90
2024/01/14 13:09:12;;;;;;;0.10;0.10;;;;;;;;;;5071695;28;20046;-89
2024/01/14 13:11:38;;;;;;;0.10;0.10;;;;;;;;;;5054623;28;20044;-89
2024/01/14 13:14:04;;;;;;;0.10;0.10;;;;;;;;;;5055050;28;20074;-89
2024/01/14 13:16:30;;;;;;;0.10;0.10;;;;;;;;;;5073410;28;20496;-89
2024/01/14 13:18:56;;;;;;;0.10;0.10;;;;;;;;;;5055230;28;20117;-87
2024/01/14 13:21:23;;;;;;;0.10;0.10;;;;;;;;;;5055154;28;20398;-89
2024/01/14 13:23:49;;;;;;;0.10;0.10;;;;;;;;;;5071929;28;20063;-89
2024/01/14 13:26:17;;;;;;;0.10;0.10;;;;;;;;;;5071994;28;20468;-90
2024/01/14 13:28:43;;;;;;;0.10;0.10;;;;;;;;;;5054775;28;20040;-89
2024/01/14 13:31:09;;;;;;;0.10;0.10;;;;;;;;;;5070815;28;20045;-87
2024/01/14 13:33:35;;;;;;;0.20;0.20;;;;;;;;;;5054557;28;20040;-89
2024/01/14 13:36:01;;;;;;;0.10;0.10;;;;;;;;;;5070708;28;20389;-89
2024/01/14 13:38:27;;;;;;;0.10;0.10;;;;;;;;;;5071517;28;20089;-89
2024/01/14 13:40:55;;;;;;;0.10;0.10;;;;;;;;;;5054362;28;20360;-90
2024/01/14 13:43:21;;;;;;;0.10;0.10;;;;;;;;;;5071373;28;20411;-89
2024/01/14 13:45:47;;;;;;;0.60;0.60;;;;;;;;;;5054389;28;20036;-89
2024/01/14 13:48:14;;;;;;;0.10;0.10;;;;;;;;;;5054791;28;20363;-89
2024/01/14 13:50:41;;;;;;;0.10;0.10;;;;;;;;;;5054926;28;20468;-89
2024/01/14 13:53:06;;;;;;;0.10;0.10;;;;;;;;;;5054954;28;20396;-89
2024/01/14 13:55:32;;;;;;;0.10;0.10;;;;;;;;;;5054733;28;20041;-90
2024/01/14 13:57:58;;;;;;;0.10;0.10;;;;;;;;;;5054761;28;20044;-91
2024/01/14 14:00:24;;;;;;;0.45;0.45;;;;;;;;;;5054076;28;20047;-89
2024/01/14 14:02:50;;;;;;;0.10;0.10;;;;;;;;;;5070988;28;20097;-90
2024/01/14 14:05:16;;;;;;;0.10;0.10;;;;;;;;;;5054788;28;20040;-90
2024/01/14 14:07:42;;;;;;;0.10;0.10;;;;;;;;;;5058107;28;20044;-91
2024/01/14 14:10:10;;;;;;;0.10;0.10;;;;;;;;;;5058079;28;20040;-90
2024/01/14 14:12:36;;;;;;;0.13;0.13;;;;;;;;;;5058075;28;20055;-90
2024/01/14 14:15:02;;;;;;;0.10;0.10;;;;;;;;;;5074590;28;20083;-90
2024/01/14 14:17:28;;;;;;;0.10;0.10;;;;;;;;;;5057861;28;20086;-90
2024/01/14 14:19:54;;;;;;;0.10;0.10;;;;;;;;;;5057749;28;20056;-89
2024/01/14 14:22:20;;;;;;;0.10;0.10;;;;;;;;;;5058129;28;20040;-90
2024/01/14 14:24:46;;;;;;;0.10;0.10;;;;;;;;;;5057797;28;20082;-89
2024/01/14 14:27:13;;;;;;;0.10;0.10;;;;;;;;;;5056942;28;20036;-87
2024/01/14 14:29:39;;;;;;;0.10;0.10;;;;;;;;;;5056983;28;20162;-86
2024/01/14 14:32:08;;;;;;;0.10;0.10;;;;;;;;;;5073312;28;20466;-87
2024/01/14 14:34:34;;;;;;;0.10;0.10;;;;;;;;;;5057108;28;20037;-87
2024/01/14 14:37:00;;;;;;;0.10;0.10;;;;;;;;;;5056878;28;20082;-89
2024/01/14 14:39:26;;;;;;;0.10;0.10;;;;;;;;;;5057065;28;20063;-88